Country
Station

 

Weather  for  Nenana/Mun.  -  United States    United States

  
5 °C (41 °F)
    
 
 

Current METAR for Nenana/Mun. is :

PANN 180953Z AUTO 07012G18KT 10SM FEW070 05/01 A2945 RMK AO2 SLP979 T00500006 TSNO

 

This is a report for Nenana/Mun. - United States.
 
The report was made 22 minutes ago, at 09:53 UTC .
The wind was blowing at a speed of 6.2 meters per second (13.8 miles per hour) with gusts up to 9.3 meters per second (20.7 miles per hour) from east/northeast (070°).
 
The temperature was 5 °C (41 °F), with a dew-point at 1 °C (34 °F).
The atmospheric pressure was 997 hPa (29.45 inHg).
The relative humidity was 75.3%.
 
There were a few clouds at a height of 2134 meters (7000 feet).
 
The overall visibility was 16.1 kilometers (10.0 miles).
 

 
 
 
 

Country :   A   B   C   D   E   F   G   H   I   J   K   L   M   N   O   P   Q   R   S   T   U   V   W   Y   Z

 

Site Info  |  Disclaimer  |  Credits  |  Privacy
Contact us  |  Add to favorites
© 2013-2019 METARs - All rights reserved